Dawson Community Airport
KGDV : now visible

Airfield :











YOU CAN JOIN US ON...

 
LOGIN :

Register | Disclaimer

   EN    FR    IT 

 









Legend :    VFR   Marginal VFR   IFR   Intensive IFR   Very Intensive IFR
Visi :
Ceiling :
>= 8 km
>= 3000ft
5 to 8 km
1000 to 3000 ft
1500m to 5 km
500 to 1000 ft
800 to 1500m
200 to 500 ft
< 800m
< 200 ft
Symbols :   Thunderstorms  Fog  Heavy snow  Heavy precipitations  Wind > 20 kt






- Airport Elevation : 2458 ft


KGDV - Dawson Community

CURRENT METAR :
  • 142056Z AUTO 00000KT 10SM OVC011 M11/M14 A2985 RMK AO2 SLP160 60000 T11111139 56015 FZRANO

EXPIRED METARs :
  • 141956Z AUTO 01005KT 10SM OVC011 M12/M14 A2985 RMK AO2 SNB24E47 SLP163 P0000 T11171144 FZRANO
  • 141856Z AUTO 03005KT 10SM OVC011 M13/M15 A2987 RMK AO2 SNE48 SLP169 P0000 T11281150 FZRANO

TAF KGDV
Valid from the 14 at 18:00 until the 15 at 18:00 UTC


141742Z 1418/1518 VRB03KT P6SM BKN020
FM141900 VRB03KT P6SM BKN016
FM150000 00000KT P6SM BKN022



MET'MAP, your aeronautical weather chart ! - Copyright ORBIFLY December 2007 - Disclaimer

ORBIFLY MET'MAP TEAM :

Programming & Development : Alexandra Zaïnal
Concept & original design : Baudouin d'Aumeries
Assistance for programming : Marc-Olivier Méhu
Technical & hardware support : Manuel Goepfert

Contact : metmap@orbifly.com




SOURCES & CREDITS :

   NOAA       Earth
Advisory